ADDS METAR Data INFO
IDs: Format: Raw Decoded Include TAF

Data at: 0753 UTC 17 Oct 2017

KJYM 170735Z AUTO 20006KT 10SM CLR 07/02 A3023 RMK AO2
KJYM 170715Z AUTO 20006KT 10SM CLR 07/02 A3023 RMK AO2
KJYM 170655Z AUTO 20007KT 10SM CLR 07/02 A3023 RMK AO2
KJYM 170634Z AUTO 20006KT 10SM CLR 06/02 A3023 RMK AO2
KJYM 170615Z AUTO 19005KT 10SM CLR 06/02 A3023 RMK AO2
KJYM 170555Z AUTO 18005KT 10SM CLR 06/03 A3023 RMK AO2
KJYM 170535Z AUTO 18005KT 10SM CLR 06/03 A3023 RMK AO2
KJYM 170515Z AUTO 19005KT 10SM CLR 06/03 A3023 RMK AO2
KJYM 170455Z AUTO 17005KT 10SM CLR 06/03 A3024 RMK AO2
KJYM 170435Z AUTO 17004KT 10SM CLR 06/03 A3023 RMK AO2
KJYM 170415Z AUTO 17005KT 10SM CLR 05/03 A3023 RMK AO2
KJYM 170355Z AUTO 17004KT 10SM CLR 05/03 A3023 RMK AO2
KJYM 170335Z AUTO 17005KT 10SM CLR 06/03 A3023 RMK AO2
KJYM 170315Z AUTO 17005KT 10SM CLR 05/03 A3024 RMK AO2
KJYM 170255Z AUTO 17003KT 10SM CLR 05/03 A3024 RMK AO2
KJYM 170235Z AUTO 17004KT 10SM CLR 05/03 A3024 RMK AO2
KJYM 170215Z AUTO 17003KT 10SM CLR 05/03 A3025 RMK AO2
KJYM 170155Z AUTO 00000KT 10SM CLR 05/03 A3025 RMK AO2
KJYM 170135Z AUTO 00000KT 10SM CLR 05/03 A3025 RMK AO2
KJYM 170115Z AUTO 00000KT 10SM CLR 05/03 A3025 RMK AO2
KJYM 170055Z AUTO 00000KT 10SM CLR 05/04 A3025 RMK AO2
KJYM 170035Z AUTO 00000KT 10SM CLR 06/04 A3025 RMK AO2
KJYM 170015Z AUTO 00000KT 10SM CLR 06/04 A3025 RMK AO2
KJYM 162355Z AUTO 00000KT 10SM CLR 07/05 A3025 RMK AO2
KJYM 162335Z AUTO 00000KT 10SM CLR 07/04 A3025 RMK AO2
KJYM 162315Z AUTO 00000KT 10SM CLR 09/04 A3025 RMK AO2
KJYM 162255Z AUTO 28003KT 10SM SCT045 SCT060 11/03 A3025 RMK AO2
KJYM 162235Z AUTO 00000KT 10SM SCT045 BKN060 12/04 A3025 RMK AO2
KJYM 162215Z AUTO 00000KT 10SM SCT060 12/05 A3025 RMK AO2
KJYM 162155Z AUTO 30003KT 10SM BKN060 12/04 A3025 RMK AO2
KJYM 162135Z AUTO 30004KT 10SM BKN060 OVC070 12/03 A3025 RMK AO2
KJYM 162115Z AUTO 28005KT 10SM OVC070 12/03 A3025 RMK AO2
KJYM 162052Z AUTO 26006KT 10SM SCT032 SCT043 OVC060 12/04 A3025 RMK AO2
KJYM 162033Z AUTO 25007KT 10SM -DZ BKN034 BKN042 OVC050 11/04 A3025 RMK AO2
KJYM 162015Z AUTO 28006KT 10SM BKN036 BKN050 OVC070 12/03 A3025 RMK AO2
KJYM 161954Z AUTO 29005KT 10SM SCT038 SCT050 OVC060 12/03 A3025 RMK AO2
KJYM 161935Z AUTO 30006KT 10SM BKN036 OVC060 12/03 A3025 RMK AO2
KJYM 161915Z AUTO 00000KT 10SM OVC036 12/03 A3026 RMK AO2
KJYM 161854Z AUTO 00000KT 10SM BKN036 OVC055 11/03 A3026 RMK AO2
KJYM 161835Z AUTO 30009KT 10SM SCT032 SCT039 BKN055 12/03 A3027 RMK AO2
KJYM 161815Z AUTO 29004KT 10SM SCT033 SCT048 BKN075 12/05 A3027 RMK AO2
KJYM 161755Z AUTO 29006KT 10SM SCT050 OVC080 12/03 A3028 RMK AO2
KJYM 161734Z AUTO 30007KT 10SM SCT030 BKN050 OVC080 12/03 A3029 RMK AO2
KJYM 161714Z AUTO 33007KT 10SM SCT030 BKN036 OVC050 11/03 A3029 RMK AO2
KJYM 161655Z AUTO 28005KT 10SM BKN030 BKN037 OVC050 11/03 A3029 RMK AO2
KJYM 161635Z AUTO 25005KT 10SM SCT028 SCT033 BKN050 11/03 A3029 RMK AO2
KJYM 161615Z AUTO 31003KT 10SM BKN028 10/03 A3029 RMK AO2
KJYM 161555Z AUTO 00000KT 10SM SCT028 BKN085 11/03 A3030 RMK AO2
KJYM 161535Z AUTO 36003KT 10SM BKN085 10/03 A3030 RMK AO2
KJYM 161515Z AUTO 00000KT 10SM SCT023 SCT085 10/02 A3030 RMK AO2
KJYM 161455Z AUTO 00000KT 10SM BKN021 10/03 A3030 RMK AO2
KJYM 161435Z AUTO 00000KT 10SM BKN021 OVC085 09/02 A3029 RMK AO2
KJYM 161415Z AUTO 00000KT 10SM BKN085 08/01 A3029 RMK AO2
KJYM 161355Z AUTO 00000KT 10SM SCT085 08/02 A3029 RMK AO2
KJYM 161335Z AUTO 00000KT 10SM CLR 07/03 A3029 RMK AO2
KJYM 161315Z AUTO 00000KT 10SM CLR 07/04 A3028 RMK AO2
KJYM 161255Z AUTO 00000KT 10SM CLR 07/05 A3028 RMK AO2
KJYM 161235Z AUTO 00000KT 10SM SCT042 05/04 A3027 RMK AO2
KJYM 161215Z AUTO 00000KT 10SM SCT039 BKN044 OVC060 05/04 A3026 RMK AO2
KJYM 161154Z AUTO 00000KT 10SM BKN046 OVC060 05/04 A3026 RMK AO2
KJYM 161135Z AUTO 00000KT 10SM BKN048 OVC060 06/05 A3024 RMK AO2
KJYM 161115Z AUTO 00000KT 10SM BKN048 OVC065 06/05 A3024 RMK AO2
KJYM 161054Z AUTO 00000KT 10SM SCT040 OVC050 06/05 A3024 RMK AO2
KJYM 161035Z AUTO 00000KT 10SM BKN042 BKN050 OVC065 06/05 A3024 RMK AO2
KJYM 161015Z AUTO 00000KT 10SM OVC040 06/05 A3023 RMK AO2
KJYM 160954Z AUTO 00000KT 10SM BKN042 BKN080 OVC095 06/05 A3023 RMK AO2
KJYM 160935Z AUTO 00000KT 10SM SCT044 BKN055 OVC095 06/05 A3023 RMK AO2
KJYM 160915Z AUTO 00000KT 10SM -RA SCT039 BKN046 OVC050 07/05 A3022 RMK AO2
KJYM 160854Z AUTO 28003KT 10SM RA BKN050 OVC060 07/05 A3021 RMK AO2
KJYM 160835Z AUTO 29004KT 10SM -RA SCT040 SCT046 OVC065 06/05 A3021 RMK AO2
KJYM 160815Z AUTO 28005KT 10SM -DZ BKN050 OVC070 06/05 A3021 RMK AO2
KJYM 160754Z AUTO 29005KT 10SM -DZ SCT022 SCT040 OVC060 06/05 A3020 RMK AO2
KJYM 160735Z AUTO 29005KT 10SM SCT022 OVC065 06/05 A3020 RMK AO2
KJYM 160715Z AUTO 29004KT 10SM BKN065 BKN075 OVC090 05/05 A3020 RMK AO2
KJYM 160655Z AUTO 00000KT 10SM BKN065 BKN075 OVC090 05/03 A3020 RMK AO2
KJYM 160635Z AUTO 00000KT 10SM BKN065 BKN090 05/03 A3019 RMK AO2
KJYM 160615Z AUTO 00000KT 10SM SCT065 05/03 A3019 RMK AO2
KJYM 160555Z AUTO 30004KT 10SM CLR 04/03 A3018 RMK AO2
KJYM 160535Z AUTO 30003KT 10SM CLR 04/02 A3018 RMK AO2
KJYM 160515Z AUTO 00000KT 10SM CLR 05/03 A3018 RMK AO2
KJYM 160455Z AUTO 00000KT 10SM CLR 05/03 A3017 RMK AO2
KJYM 160435Z AUTO 30003KT 10SM CLR 06/03 A3017 RMK AO2
KJYM 160415Z AUTO 30005KT 10SM CLR 06/04 A3018 RMK AO2
KJYM 160355Z AUTO 30004KT 10SM CLR 06/03 A3017 RMK AO2
KJYM 160335Z AUTO 30004KT 10SM CLR 06/04 A3017 RMK AO2
KJYM 160315Z AUTO 31005KT 10SM CLR 06/03 A3016 RMK AO2
KJYM 160255Z AUTO 31005KT 10SM CLR 07/03 A3016 RMK AO2
KJYM 160234Z AUTO 32006KT 10SM CLR 07/03 A3015 RMK AO2
KJYM 160215Z AUTO 32007KT 10SM CLR 07/03 A3014 RMK AO2
KJYM 160155Z AUTO 32008KT 10SM CLR 08/03 A3013 RMK AO2
KJYM 160135Z AUTO 32010G14KT 10SM SCT046 08/04 A3013 RMK AO2
KJYM 160115Z AUTO 31011KT 10SM BKN046 08/04 A3012 RMK AO2
KJYM 160054Z AUTO 31009KT 10SM OVC046 09/05 A3011 RMK AO2
KJYM 160035Z AUTO 32008KT 10SM BKN046 08/05 A3009 RMK AO2
KJYM 160015Z AUTO 32007G16KT 10SM SCT048 09/05 A3008 RMK AO2
KJYM 152354Z AUTO 32009G14KT 10SM SCT028 BKN035 09/05 A3007 RMK AO2
KJYM 152335Z AUTO 33011G21KT 10SM OVC028 10/05 A3006 RMK AO2
KJYM 152315Z AUTO 31012KT 10SM BKN026 BKN031 BKN046 10/06 A3004 RMK AO2
KJYM 152254Z AUTO 31013G20KT 10SM SCT050 10/06 A3003 RMK AO2
KJYM 152235Z AUTO 31013G22KT 10SM SCT035 BKN048 10/06 A3002 RMK AO2
KJYM 152215Z AUTO 31012G28KT 10SM SCT029 BKN037 OVC045 11/06 A3001 RMK AO2
KJYM 152154Z AUTO 30014G20KT 10SM SCT031 OVC044 11/06 A2999 RMK AO2
KJYM 152135Z AUTO 29015G29KT 10SM SCT017 SCT030 OVC044 12/06 A2998 RMK AO2
KJYM 152115Z AUTO 31011G20KT 10SM SCT017 BKN023 OVC044 12/08 A2996 RMK AO2
KJYM 152055Z AUTO 30011G19KT 10SM BKN012 BKN018 OVC033 12/10 A2994 RMK AO2 P0001
KJYM 152035Z AUTO 29010G20KT 7SM BKN011 BKN016 OVC034 11/10 A2994 RMK AO2 P0001
KJYM 152015Z AUTO 27018G23KT 4SM -RA BKN016 OVC022 12/09 A2992 RMK AO2
KJYM 151955Z AUTO 28018G24KT 10SM BKN019 OVC026 12/08 A2991 RMK AO2